Time;durP1;ratioP1;P1;durP2;ratioP2;P2;SDS_P1;SDS_P2;PMS_P1;PMS_P2;Temp;Humidity;BMP_temperature;BMP_pressure;BME280_temperature;BME280_humidity;BME280_pressure;Samples;Min_cycle;Max_cycle;Signal;HPM_P1;HPM_P2
2022/01/02 00:00:40;;;;;;;9.05;5.53;;;;;;;;;;6244953;28;20142;-66
2022/01/02 00:03:50;;;;;;;10.38;4.80;;;;;;;;;;6246126;28;20060;-66
2022/01/02 00:06:53;;;;;;;9.15;5.25;;;;;;;;;;6244958;28;20045;-66
2022/01/02 00:10:02;;;;;;;11.43;5.55;;;;;;;;;;6245654;28;20041;-66
2022/01/02 00:13:06;;;;;;;11.45;5.22;;;;;;;;;;6245831;28;20046;-65
2022/01/02 00:16:09;;;;;;;9.68;5.63;;;;;;;;;;6245728;28;20068;-65
2022/01/02 00:19:21;;;;;;;10.32;5.40;;;;;;;;;;6246328;28;20049;-65
2022/01/02 00:22:30;;;;;;;11.55;5.05;;;;;;;;;;6244557;28;20045;-66
2022/01/02 00:25:38;;;;;;;9.15;4.90;;;;;;;;;;6245138;28;20056;-66
2022/01/02 00:28:41;;;;;;;9.80;4.90;;;;;;;;;;6245553;28;20049;-66
2022/01/02 00:31:44;;;;;;;12.02;5.25;;;;;;;;;;6245430;28;20048;-66
2022/01/02 00:34:50;;;;;;;8.57;4.85;;;;;;;;;;6260425;28;20045;-66
2022/01/02 00:37:55;;;;;;;9.10;5.18;;;;;;;;;;6244621;28;20192;-66
2022/01/02 00:41:02;;;;;;;10.05;4.90;;;;;;;;;;6244683;28;20056;-66
2022/01/02 00:44:12;;;;;;;8.98;4.68;;;;;;;;;;6244382;28;20546;-66
2022/01/02 00:47:19;;;;;;;9.45;5.05;;;;;;;;;;6243506;28;20047;-66
2022/01/02 00:50:25;;;;;;;11.23;4.80;;;;;;;;;;6245129;28;20053;-66
2022/01/02 00:53:32;;;;;;;11.90;4.97;;;;;;;;;;6244434;28;20056;-66
2022/01/02 00:56:39;;;;;;;6.95;4.32;;;;;;;;;;6243696;28;20045;-66
2022/01/02 00:59:47;;;;;;;9.73;4.55;;;;;;;;;;6243097;28;20045;-66
2022/01/02 01:02:53;;;;;;;8.52;4.43;;;;;;;;;;6243999;28;20061;-66
2022/01/02 01:06:02;;;;;;;9.55;5.22;;;;;;;;;;6243657;28;20052;-66
2022/01/02 01:09:05;;;;;;;11.18;4.57;;;;;;;;;;6243221;28;20119;-66
2022/01/02 01:12:11;;;;;;;9.10;5.00;;;;;;;;;;6244552;28;20075;-66
2022/01/02 01:15:16;;;;;;;7.45;3.97;;;;;;;;;;6245085;28;20049;-66
2022/01/02 01:18:23;;;;;;;10.80;4.68;;;;;;;;;;6243300;28;20052;-66
2022/01/02 01:21:27;;;;;;;7.55;4.03;;;;;;;;;;6242631;28;20488;-66
2022/01/02 01:24:35;;;;;;;9.00;5.00;;;;;;;;;;6243496;28;20049;-66
2022/01/02 01:27:39;;;;;;;9.52;4.60;;;;;;;;;;6243345;28;20124;-66
2022/01/02 01:30:42;;;;;;;7.43;4.68;;;;;;;;;;6242622;28;20458;-65
2022/01/02 01:33:45;;;;;;;9.13;4.43;;;;;;;;;;6242451;28;20077;-66
2022/01/02 01:36:48;;;;;;;8.23;4.07;;;;;;;;;;6244905;28;20049;-66
2022/01/02 01:39:52;;;;;;;6.90;4.00;;;;;;;;;;6242508;28;20053;-66
2022/01/02 01:42:58;;;;;;;9.23;4.60;;;;;;;;;;6241751;28;20458;-66
2022/01/02 01:46:07;;;;;;;10.50;4.60;;;;;;;;;;6242881;28;20041;-66
2022/01/02 01:49:16;;;;;;;9.98;4.35;;;;;;;;;;6242689;28;20804;-66
2022/01/02 01:52:21;;;;;;;7.50;4.50;;;;;;;;;;6242111;28;20056;-67
2022/01/02 01:55:24;;;;;;;9.23;5.13;;;;;;;;;;6242242;28;20049;-65
2022/01/02 01:58:30;;;;;;;9.98;4.88;;;;;;;;;;6243123;28;20041;-66
2022/01/02 02:01:34;;;;;;;8.20;4.63;;;;;;;;;;6242212;28;20049;-66
2022/01/02 02:04:40;;;;;;;10.57;4.70;;;;;;;;;;6241548;28;20123;-65
2022/01/02 02:07:46;;;;;;;9.65;5.32;;;;;;;;;;6242403;28;20455;-66
2022/01/02 02:10:56;;;;;;;10.25;4.78;;;;;;;;;;6242327;28;20663;-65
2022/01/02 02:14:01;;;;;;;11.00;4.80;;;;;;;;;;6241817;28;20057;-66
2022/01/02 02:17:03;;;;;;;9.48;4.70;;;;;;;;;;6241389;28;20057;-66
2022/01/02 02:20:15;;;;;;;9.05;4.80;;;;;;;;;;6258868;28;20056;-66
2022/01/02 02:23:18;;;;;;;11.70;5.10;;;;;;;;;;6241635;28;20476;-66
2022/01/02 02:26:21;;;;;;;10.73;4.75;;;;;;;;;;6241422;28;20049;-66
2022/01/02 02:29:26;;;;;;;10.75;5.05;;;;;;;;;;6243278;28;20104;-66
2022/01/02 02:32:32;;;;;;;11.55;5.60;;;;;;;;;;6242140;28;20080;-66
2022/01/02 02:35:37;;;;;;;12.98;4.97;;;;;;;;;;6241295;28;20053;-66
2022/01/02 02:38:40;;;;;;;9.35;5.00;;;;;;;;;;6240904;28;20524;-65
2022/01/02 02:41:45;;;;;;;9.45;5.05;;;;;;;;;;6241872;28;20042;-66
2022/01/02 02:44:57;;;;;;;11.15;4.90;;;;;;;;;;6241204;28;20045;-66
2022/01/02 02:51:44;;;;;;;12.13;5.20;;;;;;;;;;6241004;28;20049;-66
2022/01/02 02:54:54;;;;;;;9.27;5.10;;;;;;;;;;6241527;28;20045;-66
2022/01/02 02:58:16;;;;;;;11.32;4.82;;;;;;;;;;6241061;28;20057;-66
2022/01/02 03:01:22;;;;;;;13.70;5.15;;;;;;;;;;6242273;28;20488;-66
2022/01/02 03:04:27;;;;;;;9.45;5.32;;;;;;;;;;6242165;28;20107;-66
2022/01/02 03:07:31;;;;;;;9.25;5.15;;;;;;;;;;6242628;28;20046;-65
2022/01/02 03:10:34;;;;;;;7.78;4.32;;;;;;;;;;6241029;28;20049;-66
2022/01/02 03:13:41;;;;;;;11.77;5.03;;;;;;;;;;6240200;28;20068;-66
2022/01/02 03:16:44;;;;;;;11.50;5.10;;;;;;;;;;6241369;28;20045;-65
2022/01/02 03:19:47;;;;;;;9.95;5.22;;;;;;;;;;6242136;28;20050;-65
2022/01/02 03:22:54;;;;;;;15.63;7.13;;;;;;;;;;6240521;28;20439;-65
2022/01/02 03:25:57;;;;;;;13.13;4.82;;;;;;;;;;6240749;28;20048;-66
2022/01/02 03:29:00;;;;;;;12.07;6.00;;;;;;;;;;6241060;28;20057;-66
2022/01/02 03:32:06;;;;;;;10.30;5.43;;;;;;;;;;6242094;28;20041;-65
2022/01/02 03:35:11;;;;;;;11.10;5.33;;;;;;;;;;6239926;28;20053;-66
2022/01/02 03:38:17;;;;;;;10.88;5.47;;;;;;;;;;6242389;28;20144;-66
2022/01/02 03:41:21;;;;;;;12.02;5.40;;;;;;;;;;6240734;28;20045;-65
2022/01/02 03:44:24;;;;;;;10.50;5.93;;;;;;;;;;6240202;28;20085;-66
2022/01/02 03:47:28;;;;;;;12.38;5.70;;;;;;;;;;6240670;28;20037;-66
2022/01/02 03:50:31;;;;;;;13.43;6.03;;;;;;;;;;6240932;28;20540;-66
2022/01/02 03:53:37;;;;;;;13.65;5.85;;;;;;;;;;6240489;28;20390;-66
2022/01/02 03:56:44;;;;;;;12.98;6.20;;;;;;;;;;6241263;28;20499;-66
2022/01/02 03:59:50;;;;;;;12.18;6.82;;;;;;;;;;6242365;28;20107;-66
2022/01/02 04:02:52;;;;;;;12.43;6.57;;;;;;;;;;6240350;28;20111;-66
2022/01/02 04:05:56;;;;;;;9.98;5.78;;;;;;;;;;6242498;28;20049;-66
2022/01/02 04:09:00;;;;;;;11.32;6.20;;;;;;;;;;6246584;28;20049;-66
2022/01/02 04:12:04;;;;;;;14.18;6.15;;;;;;;;;;6245796;28;20049;-66
2022/01/02 04:15:09;;;;;;;12.02;6.22;;;;;;;;;;6244707;28;20040;-66
2022/01/02 04:18:12;;;;;;;14.30;6.43;;;;;;;;;;6244053;28;20041;-66
2022/01/02 04:21:15;;;;;;;12.27;6.60;;;;;;;;;;6246378;28;20046;-65
2022/01/02 04:24:19;;;;;;;13.25;6.45;;;;;;;;;;6244555;28;20431;-66
2022/01/02 04:27:24;;;;;;;13.07;6.47;;;;;;;;;;6243714;28;20045;-66
2022/01/02 04:30:27;;;;;;;12.63;6.28;;;;;;;;;;6244834;28;20042;-66
2022/01/02 04:33:30;;;;;;;12.07;6.15;;;;;;;;;;6244358;28;20052;-66
2022/01/02 04:36:33;;;;;;;12.15;6.18;;;;;;;;;;6243869;28;20491;-66
2022/01/02 04:39:41;;;;;;;14.50;6.47;;;;;;;;;;6243822;28;20419;-66
2022/01/02 04:42:44;;;;;;;14.63;7.30;;;;;;;;;;6244500;28;20046;-66
2022/01/02 04:45:47;;;;;;;14.73;6.35;;;;;;;;;;6244054;28;20049;-66
2022/01/02 04:48:52;;;;;;;12.23;6.47;;;;;;;;;;6243197;28;20450;-66
2022/01/02 04:51:55;;;;;;;10.82;6.43;;;;;;;;;;6261436;28;20049;-66
2022/01/02 04:55:00;;;;;;;16.05;6.60;;;;;;;;;;6243578;28;20076;-66
2022/01/02 04:58:04;;;;;;;12.60;6.50;;;;;;;;;;6244373;28;20056;-66
2022/01/02 05:01:11;;;;;;;12.00;6.28;;;;;;;;;;6244807;28;20057;-66
2022/01/02 05:04:15;;;;;;;15.15;6.53;;;;;;;;;;6243845;28;20476;-65
2022/01/02 05:07:18;;;;;;;11.10;5.55;;;;;;;;;;6243478;28;20762;-66
2022/01/02 05:10:22;;;;;;;11.20;5.85;;;;;;;;;;6242721;28;20041;-66
2022/01/02 05:13:30;;;;;;;11.32;6.00;;;;;;;;;;6243931;28;20099;-66
2022/01/02 05:16:33;;;;;;;11.88;6.53;;;;;;;;;;6242713;28;20125;-65
2022/01/02 05:19:36;;;;;;;12.80;6.15;;;;;;;;;;6244286;28;20049;-65
2022/01/02 05:22:47;;;;;;;15.63;6.53;;;;;;;;;;6244339;28;20049;-66
2022/01/02 05:25:52;;;;;;;12.82;7.13;;;;;;;;;;6243645;28;20056;-66
2022/01/02 05:28:55;;;;;;;17.10;7.95;;;;;;;;;;6243072;28;20052;-65
2022/01/02 05:31:59;;;;;;;17.60;8.65;;;;;;;;;;6242379;28;20041;-67
2022/01/02 05:35:03;;;;;;;12.15;7.30;;;;;;;;;;6243304;28;20079;-66
2022/01/02 05:38:06;;;;;;;13.65;6.20;;;;;;;;;;6243825;28;20068;-66
2022/01/02 05:41:11;;;;;;;13.35;6.32;;;;;;;;;;6242203;28;20562;-65
2022/01/02 05:44:14;;;;;;;10.10;6.20;;;;;;;;;;6242804;28;20389;-66
2022/01/02 05:47:17;;;;;;;13.23;6.78;;;;;;;;;;6244081;28;20046;-65
2022/01/02 05:50:22;;;;;;;10.50;6.45;;;;;;;;;;6242820;28;20041;-66
2022/01/02 05:53:29;;;;;;;11.07;6.30;;;;;;;;;;6242142;28;20494;-66
2022/01/02 05:56:34;;;;;;;9.43;6.15;;;;;;;;;;6243251;28;20049;-65
2022/01/02 05:59:39;;;;;;;10.87;5.77;;;;;;;;;;6242270;28;20062;-65
2022/01/02 06:02:43;;;;;;;17.13;7.22;;;;;;;;;;6241860;28;20041;-66
2022/01/02 06:05:48;;;;;;;14.82;7.30;;;;;;;;;;6242375;28;20124;-66
2022/01/02 06:08:51;;;;;;;12.68;7.13;;;;;;;;;;6243277;28;20118;-65
2022/01/02 06:11:55;;;;;;;12.13;6.15;;;;;;;;;;6242390;28;20048;-65
2022/01/02 06:14:58;;;;;;;16.20;6.25;;;;;;;;;;6242675;28;20052;-65
2022/01/02 06:18:03;;;;;;;16.02;6.13;;;;;;;;;;6242288;28;20124;-65
2022/01/02 06:21:07;;;;;;;13.52;5.90;;;;;;;;;;6241823;28;20052;-65
2022/01/02 06:24:10;;;;;;;12.27;6.30;;;;;;;;;;6241087;28;20038;-65
2022/01/02 06:27:15;;;;;;;11.25;5.82;;;;;;;;;;6242239;28;20045;-65
2022/01/02 06:30:18;;;;;;;12.43;6.25;;;;;;;;;;6240714;28;20045;-65
2022/01/02 06:33:22;;;;;;;12.18;6.43;;;;;;;;;;6241447;28;20095;-66
2022/01/02 06:36:25;;;;;;;15.88;7.20;;;;;;;;;;6241539;28;20046;-66
2022/01/02 06:39:28;;;;;;;11.35;6.43;;;;;;;;;;6241410;28;20053;-65
2022/01/02 06:42:38;;;;;;;11.75;6.32;;;;;;;;;;6241398;28;20128;-64
2022/01/02 06:45:41;;;;;;;10.37;6.07;;;;;;;;;;6240743;28;20458;-66
2022/01/02 06:48:45;;;;;;;10.18;5.78;;;;;;;;;;6241754;28;20045;-66
2022/01/02 06:51:48;;;;;;;10.18;5.72;;;;;;;;;;6241238;28;20049;-64
2022/01/02 06:54:53;;;;;;;15.27;7.80;;;;;;;;;;6240972;28;20041;-64
2022/01/02 06:58:00;;;;;;;15.40;8.55;;;;;;;;;;6240981;28;20049;-66
2022/01/02 07:01:06;;;;;;;12.73;6.57;;;;;;;;;;6241427;28;20095;-66
2022/01/02 07:04:10;;;;;;;13.30;6.93;;;;;;;;;;6241116;28;20049;-63
2022/01/02 07:07:16;;;;;;;13.75;6.72;;;;;;;;;;6240432;28;20497;-65
2022/01/02 07:10:19;;;;;;;12.55;6.55;;;;;;;;;;6241398;28;20043;-65
2022/01/02 07:13:24;;;;;;;11.15;6.20;;;;;;;;;;6240764;28;20343;-66
2022/01/02 07:16:27;;;;;;;10.13;5.50;;;;;;;;;;6240712;28;20492;-65
2022/01/02 07:19:30;;;;;;;11.65;5.82;;;;;;;;;;6240849;28;20056;-66
2022/01/02 07:22:33;;;;;;;10.57;6.05;;;;;;;;;;6242288;28;20421;-66
2022/01/02 07:25:36;;;;;;;8.27;5.65;;;;;;;;;;6242285;28;20072;-66
2022/01/02 07:28:41;;;;;;;9.30;6.18;;;;;;;;;;6241377;28;20037;-67
2022/01/02 07:31:44;;;;;;;9.20;5.72;;;;;;;;;;6242552;28;20041;-66
2022/01/02 07:34:47;;;;;;;11.80;6.40;;;;;;;;;;6240544;28;20484;-64
2022/01/02 07:37:52;;;;;;;10.32;5.82;;;;;;;;;;6241434;28;20072;-64
2022/01/02 07:40:58;;;;;;;11.23;5.35;;;;;;;;;;6245081;28;20049;-66
2022/01/02 07:44:03;;;;;;;12.02;6.13;;;;;;;;;;6246774;28;20552;-66
2022/01/02 07:47:06;;;;;;;12.18;5.82;;;;;;;;;;6245326;28;20049;-66
2022/01/02 07:50:10;;;;;;;10.13;5.72;;;;;;;;;;6246053;28;20451;-64
2022/01/02 07:53:13;;;;;;;14.15;5.72;;;;;;;;;;6246958;28;20045;-66
2022/01/02 07:56:16;;;;;;;8.65;5.20;;;;;;;;;;6245268;28;20073;-66
2022/01/02 07:59:22;;;;;;;9.63;5.15;;;;;;;;;;6244625;28;20057;-64
2022/01/02 08:02:25;;;;;;;9.05;5.18;;;;;;;;;;6245337;28;20065;-65
2022/01/02 08:05:28;;;;;;;10.10;5.45;;;;;;;;;;6245903;28;20046;-65
2022/01/02 08:08:31;;;;;;;8.38;4.68;;;;;;;;;;6246122;28;20052;-64
2022/01/02 08:11:34;;;;;;;7.55;4.82;;;;;;;;;;6245857;28;20100;-66
2022/01/02 08:14:53;;;;;;;8.85;4.63;;;;;;;;;;6245285;28;20061;-66
2022/01/02 08:17:57;;;;;;;9.40;5.18;;;;;;;;;;6244790;28;20132;-66
2022/01/02 08:20:59;;;;;;;6.85;4.47;;;;;;;;;;6243879;28;20037;-66
2022/01/02 08:24:05;;;;;;;7.25;4.80;;;;;;;;;;6246553;28;20426;-64
2022/01/02 08:27:08;;;;;;;12.48;6.03;;;;;;;;;;6245743;28;20132;-66
2022/01/02 08:30:12;;;;;;;14.60;6.82;;;;;;;;;;6244124;28;20552;-66
2022/01/02 08:33:15;;;;;;;10.52;6.32;;;;;;;;;;6243994;28;20053;-66
2022/01/02 08:36:19;;;;;;;12.80;5.60;;;;;;;;;;6245863;28;20059;-66
2022/01/02 08:39:24;;;;;;;9.02;5.53;;;;;;;;;;6245402;28;20050;-65
2022/01/02 08:42:28;;;;;;;11.20;5.78;;;;;;;;;;6243362;28;20064;-64
2022/01/02 08:45:32;;;;;;;8.85;5.22;;;;;;;;;;6245827;28;20067;-66
2022/01/02 08:48:35;;;;;;;11.05;6.57;;;;;;;;;;6245159;28;20049;-65
2022/01/02 08:51:38;;;;;;;12.93;7.18;;;;;;;;;;6244026;28;20049;-66
2022/01/02 08:54:41;;;;;;;11.40;6.15;;;;;;;;;;6245317;28;20053;-64
2022/01/02 08:57:44;;;;;;;10.52;5.82;;;;;;;;;;6245156;28;20558;-66
2022/01/02 09:00:48;;;;;;;9.00;5.38;;;;;;;;;;6245498;28;20049;-66
2022/01/02 09:03:51;;;;;;;14.13;6.13;;;;;;;;;;6242923;28;20038;-65
2022/01/02 09:06:54;;;;;;;10.07;5.60;;;;;;;;;;6245234;28;20049;-66
2022/01/02 09:09:57;;;;;;;12.70;7.22;;;;;;;;;;6243235;28;20060;-66
2022/01/02 09:13:00;;;;;;;14.75;6.40;;;;;;;;;;6244222;28;20488;-66
2022/01/02 09:16:04;;;;;;;12.93;6.85;;;;;;;;;;6244840;28;20042;-66
2022/01/02 09:19:08;;;;;;;13.10;6.88;;;;;;;;;;6244445;28;20419;-66
2022/01/02 09:22:11;;;;;;;10.63;5.53;;;;;;;;;;6244460;28;20120;-66
2022/01/02 09:25:14;;;;;;;9.80;4.15;;;;;;;;;;6244017;28;20477;-66
2022/01/02 09:28:19;;;;;;;8.10;3.47;;;;;;;;;;6243495;28;20506;-65
2022/01/02 09:31:24;;;;;;;6.13;3.60;;;;;;;;;;6243474;28;20042;-66
2022/01/02 09:34:27;;;;;;;5.70;3.53;;;;;;;;;;6242229;28;20045;-66
2022/01/02 09:37:34;;;;;;;9.65;3.67;;;;;;;;;;6244402;28;20049;-66
2022/01/02 09:40:37;;;;;;;5.20;3.03;;;;;;;;;;6242662;28;20046;-66
2022/01/02 09:43:42;;;;;;;6.18;3.22;;;;;;;;;;6244004;28;20697;-66
2022/01/02 09:46:46;;;;;;;9.02;3.67;;;;;;;;;;6243660;28;20496;-66
2022/01/02 09:49:49;;;;;;;6.15;3.20;;;;;;;;;;6243998;28;20045;-66
2022/01/02 09:52:54;;;;;;;5.13;2.80;;;;;;;;;;6243940;28;20525;-66
2022/01/02 09:55:57;;;;;;;5.38;2.90;;;;;;;;;;6242935;28;20052;-67
2022/01/02 09:59:02;;;;;;;5.70;3.05;;;;;;;;;;6244160;28;20046;-65
2022/01/02 10:02:06;;;;;;;6.65;2.97;;;;;;;;;;6243853;28;20099;-66
2022/01/02 10:05:09;;;;;;;7.97;2.75;;;;;;;;;;6243125;28;20046;-66
2022/01/02 10:08:19;;;;;;;6.20;2.83;;;;;;;;;;6243294;28;20052;-66
2022/01/02 10:11:25;;;;;;;4.05;2.60;;;;;;;;;;6243542;28;20484;-65
2022/01/02 10:14:28;;;;;;;3.80;2.25;;;;;;;;;;6243519;28;20056;-66
2022/01/02 10:17:50;;;;;;;6.38;2.30;;;;;;;;;;6242505;28;20056;-66
2022/01/02 10:20:59;;;;;;;7.47;2.30;;;;;;;;;;6243379;28;20046;-66
2022/01/02 10:24:16;;;;;;;5.20;2.45;;;;;;;;;;6243340;28;20049;-66
2022/01/02 10:27:19;;;;;;;5.45;2.17;;;;;;;;;;6241863;28;20053;-67
2022/01/02 10:30:25;;;;;;;5.72;2.55;;;;;;;;;;6242233;28;20053;-67
2022/01/02 10:33:32;;;;;;;8.27;2.88;;;;;;;;;;6243270;28;20054;-66
2022/01/02 10:36:35;;;;;;;7.03;3.33;;;;;;;;;;6243068;28;20042;-66
2022/01/02 10:39:41;;;;;;;11.95;5.57;;;;;;;;;;6242417;28;20120;-67
2022/01/02 10:42:44;;;;;;;8.80;4.90;;;;;;;;;;6241393;28;20309;-66
2022/01/02 10:45:50;;;;;;;9.10;4.35;;;;;;;;;;6242641;28;20049;-66
2022/01/02 10:48:54;;;;;;;7.18;3.47;;;;;;;;;;6241326;28;20049;-67
2022/01/02 10:52:14;;;;;;;12.52;4.50;;;;;;;;;;6240337;28;20041;-66
2022/01/02 10:55:18;;;;;;;6.00;3.00;;;;;;;;;;6243053;28;20120;-66
2022/01/02 10:58:21;;;;;;;7.82;4.85;;;;;;;;;;6241013;28;20491;-66
2022/01/02 11:01:24;;;;;;;12.57;6.25;;;;;;;;;;6240908;28;20052;-66
2022/01/02 11:04:30;;;;;;;14.82;7.93;;;;;;;;;;6242165;28;20492;-66
2022/01/02 11:07:38;;;;;;;16.08;8.48;;;;;;;;;;6242548;28;20076;-65
2022/01/02 11:10:44;;;;;;;14.70;9.20;;;;;;;;;;6242526;28;20041;-66
2022/01/02 11:13:46;;;;;;;13.02;8.77;;;;;;;;;;6241605;28;20053;-66
2022/01/02 11:16:50;;;;;;;8.85;4.30;;;;;;;;;;6245854;28;20487;-66
2022/01/02 11:19:54;;;;;;;14.38;7.38;;;;;;;;;;6245769;28;20037;-67
2022/01/02 11:23:01;;;;;;;7.03;3.15;;;;;;;;;;6245924;28;20076;-66
2022/01/02 11:26:08;;;;;;;11.93;7.03;;;;;;;;;;6245869;28;20180;-67
2022/01/02 11:29:13;;;;;;;12.57;6.70;;;;;;;;;;6245995;28;20049;-66
2022/01/02 11:32:23;;;;;;;10.60;3.90;;;;;;;;;;6247726;28;20172;-66
2022/01/02 11:35:31;;;;;;;7.75;3.72;;;;;;;;;;6246357;28;20057;-66
2022/01/02 11:38:44;;;;;;;8.40;3.70;;;;;;;;;;6247183;28;20136;-64
2022/01/02 11:41:50;;;;;;;7.50;3.10;;;;;;;;;;6245453;28;20045;-65
2022/01/02 11:44:52;;;;;;;3.97;2.60;;;;;;;;;;6245582;28;20045;-66
2022/01/02 11:47:56;;;;;;;4.25;2.15;;;;;;;;;;6245123;28;20103;-66
2022/01/02 11:51:00;;;;;;;6.20;2.63;;;;;;;;;;6245473;28;20041;-66
2022/01/02 11:54:03;;;;;;;3.15;2.20;;;;;;;;;;6246777;28;20060;-66
2022/01/02 11:57:37;;;;;;;4.10;2.25;;;;;;;;;;6245995;28;20069;-65
2022/01/02 12:00:44;;;;;;;5.57;2.38;;;;;;;;;;6246057;28;20057;-66
2022/01/02 12:03:48;;;;;;;3.17;2.00;;;;;;;;;;6246477;28;20513;-66
2022/01/02 12:06:54;;;;;;;6.00;2.40;;;;;;;;;;6246639;28;20049;-65
2022/01/02 12:10:17;;;;;;;6.88;2.45;;;;;;;;;;6245687;28;20128;-66
2022/01/02 12:13:24;;;;;;;4.18;2.30;;;;;;;;;;6246465;28;20099;-66
2022/01/02 12:16:33;;;;;;;3.53;2.60;;;;;;;;;;6244699;28;20073;-65
2022/01/02 12:19:55;;;;;;;3.53;2.30;;;;;;;;;;6246269;28;20041;-66
2022/01/02 12:22:58;;;;;;;4.00;2.80;;;;;;;;;;6245137;28;20041;-66
2022/01/02 12:26:03;;;;;;;8.68;3.97;;;;;;;;;;6243878;28;20041;-66
2022/01/02 12:29:10;;;;;;;5.80;3.10;;;;;;;;;;6245692;28;20042;-66
2022/01/02 12:32:15;;;;;;;6.65;3.58;;;;;;;;;;6245537;28;20045;-66
2022/01/02 12:35:18;;;;;;;7.32;3.20;;;;;;;;;;6245653;28;20127;-66
2022/01/02 12:38:21;;;;;;;9.65;3.80;;;;;;;;;;6243977;28;20065;-66
2022/01/02 12:41:25;;;;;;;7.85;4.00;;;;;;;;;;6245723;28;20515;-66
2022/01/02 12:44:31;;;;;;;6.03;3.40;;;;;;;;;;6243417;28;20068;-66
2022/01/02 12:47:47;;;;;;;10.57;3.50;;;;;;;;;;6244353;28;20301;-66
2022/01/02 12:50:53;;;;;;;8.18;3.10;;;;;;;;;;6245037;28;20049;-66
2022/01/02 12:53:59;;;;;;;5.80;3.20;;;;;;;;;;6245072;28;20472;-66
2022/01/02 12:57:05;;;;;;;6.28;3.47;;;;;;;;;;6244843;28;20041;-65
2022/01/02 13:00:08;;;;;;;;;;;;;;;;;;6244360;28;20045;-66
2022/01/02 13:03:16;;;;;;;6.50;3.63;;;;;;;;;;6245239;28;19925;-67
2022/01/02 13:06:20;;;;;;;6.57;3.85;;;;;;;;;;6244382;28;20053;-66
2022/01/02 13:09:24;;;;;;;6.95;4.28;;;;;;;;;;6243876;28;20057;-66
2022/01/02 13:12:29;;;;;;;7.35;3.88;;;;;;;;;;6244478;28;20431;-66
2022/01/02 13:15:32;;;;;;;9.32;4.35;;;;;;;;;;6243686;28;20491;-66
2022/01/02 13:18:40;;;;;;;9.43;4.30;;;;;;;;;;6243259;28;20099;-67
2022/01/02 13:21:43;;;;;;;8.40;4.28;;;;;;;;;;6243431;28;20041;-66
2022/01/02 13:24:46;;;;;;;6.47;3.97;;;;;;;;;;6244799;28;20170;-66
2022/01/02 13:27:52;;;;;;;11.20;4.20;;;;;;;;;;6243777;28;20438;-66
2022/01/02 13:30:56;;;;;;;8.20;4.65;;;;;;;;;;6243381;28;20041;-66
2022/01/02 13:34:00;;;;;;;7.38;4.28;;;;;;;;;;6244233;28;20450;-66
2022/01/02 13:37:04;;;;;;;7.05;4.50;;;;;;;;;;6242457;28;20073;-66
2022/01/02 13:40:09;;;;;;;6.10;4.38;;;;;;;;;;6243665;28;20057;-66
2022/01/02 13:43:15;;;;;;;7.70;4.82;;;;;;;;;;6242803;28;20439;-66
2022/01/02 13:46:18;;;;;;;9.65;4.72;;;;;;;;;;6244215;28;20529;-66
2022/01/02 13:49:42;;;;;;;9.88;5.30;;;;;;;;;;6243384;28;20136;-65
2022/01/02 13:52:52;;;;;;;10.77;5.13;;;;;;;;;;6244055;28;20484;-67
2022/01/02 13:55:56;;;;;;;9.88;5.47;;;;;;;;;;6242335;28;20049;-66
2022/01/02 13:59:01;;;;;;;13.48;6.20;;;;;;;;;;6242729;28;20220;-65
2022/01/02 14:02:05;;;;;;;11.18;5.78;;;;;;;;;;6243284;28;20041;-66
2022/01/02 14:05:12;;;;;;;11.93;6.10;;;;;;;;;;6243712;28;20364;-66
2022/01/02 14:08:16;;;;;;;12.30;6.53;;;;;;;;;;6243602;28;20051;-65
2022/01/02 14:11:27;;;;;;;12.48;6.65;;;;;;;;;;6243249;28;20438;-65
2022/01/02 14:14:47;;;;;;;13.43;6.70;;;;;;;;;;6242182;28;20045;-65
2022/01/02 14:17:51;;;;;;;12.73;6.60;;;;;;;;;;6242019;28;20050;-66
2022/01/02 14:21:00;;;;;;;12.38;6.43;;;;;;;;;;6243898;28;20045;-65
2022/01/02 14:24:04;;;;;;;13.32;6.70;;;;;;;;;;6242424;28;20476;-66
2022/01/02 14:27:13;;;;;;;14.07;7.72;;;;;;;;;;6243391;28;20172;-66
2022/01/02 14:30:16;;;;;;;14.30;7.63;;;;;;;;;;6242857;28;20056;-67
2022/01/02 14:33:20;;;;;;;16.85;7.63;;;;;;;;;;6242729;28;20418;-66
2022/01/02 14:36:25;;;;;;;23.35;7.88;;;;;;;;;;6242680;28;20045;-67
2022/01/02 14:39:28;;;;;;;15.03;7.83;;;;;;;;;;6242729;28;20045;-66
2022/01/02 14:42:31;;;;;;;13.43;7.25;;;;;;;;;;6242053;28;20045;-66
2022/01/02 14:45:34;;;;;;;20.50;9.25;;;;;;;;;;6241948;28;20115;-66
2022/01/02 14:48:37;;;;;;;18.00;7.40;;;;;;;;;;6242729;28;20045;-66
2022/01/02 14:51:43;;;;;;;18.75;8.05;;;;;;;;;;6240906;28;20394;-66
2022/01/02 14:54:48;;;;;;;17.25;8.30;;;;;;;;;;6240923;28;20049;-66
2022/01/02 14:57:51;;;;;;;24.48;9.05;;;;;;;;;;6241262;28;20502;-66
2022/01/02 15:00:55;;;;;;;21.13;8.93;;;;;;;;;;6240967;28;20048;-67
2022/01/02 15:03:59;;;;;;;20.30;9.27;;;;;;;;;;6242698;28;20052;-66
2022/01/02 15:07:05;;;;;;;19.27;8.75;;;;;;;;;;6240737;28;20042;-66
2022/01/02 15:10:09;;;;;;;18.27;9.35;;;;;;;;;;6242332;28;20041;-66
2022/01/02 15:13:15;;;;;;;20.92;9.55;;;;;;;;;;6242331;28;20057;-66
2022/01/02 15:16:18;;;;;;;19.83;9.80;;;;;;;;;;6240558;28;20050;-66
2022/01/02 15:19:21;;;;;;;20.40;8.95;;;;;;;;;;6242531;28;20049;-66
2022/01/02 15:22:28;;;;;;;17.85;9.50;;;;;;;;;;6240729;28;20207;-66
2022/01/02 15:25:31;;;;;;;14.55;7.90;;;;;;;;;;6241000;28;20079;-66
2022/01/02 15:28:34;;;;;;;14.95;7.07;;;;;;;;;;6241655;28;20423;-66
2022/01/02 15:31:37;;;;;;;14.75;7.30;;;;;;;;;;6242211;28;20042;-65
2022/01/02 15:34:41;;;;;;;12.13;6.90;;;;;;;;;;6240820;28;20120;-66
2022/01/02 15:37:48;;;;;;;14.18;7.93;;;;;;;;;;6241277;28;20076;-65
2022/01/02 15:40:56;;;;;;;14.52;7.90;;;;;;;;;;6242363;28;20123;-65
2022/01/02 15:43:59;;;;;;;15.90;7.60;;;;;;;;;;6242013;28;20432;-65
2022/01/02 15:47:05;;;;;;;19.63;9.00;;;;;;;;;;6242023;28;20045;-64
2022/01/02 15:50:08;;;;;;;15.32;7.75;;;;;;;;;;6241371;28;20103;-67
2022/01/02 15:53:14;;;;;;;15.07;7.43;;;;;;;;;;6242218;28;20064;-66
2022/01/02 15:56:17;;;;;;;15.43;7.50;;;;;;;;;;6240689;28;20411;-66
2022/01/02 15:59:20;;;;;;;16.13;7.88;;;;;;;;;;6239761;28;20172;-65
2022/01/02 16:02:23;;;;;;;18.08;9.00;;;;;;;;;;6245234;28;20053;-65
2022/01/02 16:05:29;;;;;;;17.23;7.80;;;;;;;;;;6244717;28;20156;-66
2022/01/02 16:08:33;;;;;;;17.67;7.75;;;;;;;;;;6245116;28;20046;-65
2022/01/02 16:11:36;;;;;;;14.63;7.85;;;;;;;;;;6245983;28;20045;-66
2022/01/02 16:14:41;;;;;;;19.38;8.20;;;;;;;;;;6245168;28;20045;-66
2022/01/02 16:17:45;;;;;;;15.20;8.32;;;;;;;;;;6245282;28;20046;-66
2022/01/02 16:20:51;;;;;;;14.77;7.68;;;;;;;;;;6245411;28;20610;-65
2022/01/02 16:23:56;;;;;;;14.95;7.57;;;;;;;;;;6246187;28;20145;-65
2022/01/02 16:26:59;;;;;;;18.45;7.85;;;;;;;;;;6245781;28;20045;-65
2022/01/02 16:30:02;;;;;;;17.77;8.10;;;;;;;;;;6245194;28;20148;-66
2022/01/02 16:33:06;;;;;;;14.88;8.48;;;;;;;;;;6244262;28;20052;-66
2022/01/02 16:36:09;;;;;;;18.45;8.48;;;;;;;;;;6244099;28;20504;-66
2022/01/02 16:39:13;;;;;;;16.98;9.00;;;;;;;;;;6245721;28;20108;-66
2022/01/02 16:42:16;;;;;;;16.80;8.30;;;;;;;;;;6245295;28;20502;-66
2022/01/02 16:45:22;;;;;;;17.10;8.80;;;;;;;;;;6245699;28;20044;-66
2022/01/02 16:48:25;;;;;;;19.80;8.52;;;;;;;;;;6244529;28;20189;-66
2022/01/02 16:51:28;;;;;;;22.48;8.52;;;;;;;;;;6244741;28;20045;-66
2022/01/02 16:54:32;;;;;;;18.65;8.75;;;;;;;;;;6244394;28;20045;-66
2022/01/02 16:57:35;;;;;;;16.95;8.32;;;;;;;;;;6245121;28;20389;-65
2022/01/02 17:00:39;;;;;;;14.48;8.27;;;;;;;;;;6245124;28;20049;-66
2022/01/02 17:03:42;;;;;;;18.85;8.63;;;;;;;;;;6245005;28;20049;-65
2022/01/02 17:06:46;;;;;;;20.00;8.82;;;;;;;;;;6243688;28;20052;-66
2022/01/02 17:09:51;;;;;;;17.67;8.75;;;;;;;;;;6245203;28;20064;-66
2022/01/02 17:12:54;;;;;;;17.90;8.32;;;;;;;;;;6241965;28;20049;-66
2022/01/02 17:15:57;;;;;;;15.10;7.88;;;;;;;;;;6245030;28;20163;-66
2022/01/02 17:19:01;;;;;;;17.13;8.45;;;;;;;;;;6244606;28;20399;-66
2022/01/02 17:22:04;;;;;;;29.33;13.50;;;;;;;;;;6244534;28;20080;-66
2022/01/02 17:25:09;;;;;;;50.33;22.98;;;;;;;;;;6244329;28;20551;-66
2022/01/02 17:28:17;;;;;;;24.25;12.38;;;;;;;;;;6244490;28;20530;-65
2022/01/02 17:31:20;;;;;;;17.90;9.93;;;;;;;;;;6244755;28;20064;-66
2022/01/02 17:34:23;;;;;;;19.48;9.18;;;;;;;;;;6243582;28;20033;-66
2022/01/02 17:37:26;;;;;;;16.45;9.65;;;;;;;;;;6244249;28;20049;-66
2022/01/02 17:40:35;;;;;;;18.20;8.88;;;;;;;;;;6244296;28;20046;-66
2022/01/02 17:43:38;;;;;;;17.38;9.80;;;;;;;;;;6242670;28;20459;-66
2022/01/02 17:46:44;;;;;;;19.45;9.18;;;;;;;;;;6244348;28;20049;-66
2022/01/02 17:49:50;;;;;;;20.88;9.43;;;;;;;;;;6243872;28;20045;-66
2022/01/02 17:52:52;;;;;;;16.75;8.82;;;;;;;;;;6244053;28;20042;-66
2022/01/02 17:55:57;;;;;;;18.98;9.10;;;;;;;;;;6242916;28;20514;-66
2022/01/02 17:59:00;;;;;;;16.98;8.45;;;;;;;;;;6244147;28;20057;-66
2022/01/02 18:02:03;;;;;;;19.02;9.05;;;;;;;;;;6244081;28;20052;-66
2022/01/02 18:05:07;;;;;;;15.57;9.05;;;;;;;;;;6241772;28;20451;-66
2022/01/02 18:08:10;;;;;;;18.88;8.63;;;;;;;;;;6243640;28;20569;-66
2022/01/02 18:11:14;;;;;;;17.15;8.82;;;;;;;;;;6241863;28;20075;-66
2022/01/02 18:14:17;;;;;;;22.45;10.10;;;;;;;;;;6243224;28;20045;-67
2022/01/02 18:17:20;;;;;;;17.02;9.00;;;;;;;;;;6241882;28;20046;-66
2022/01/02 18:20:24;;;;;;;21.95;10.43;;;;;;;;;;6241802;28;20049;-66
2022/01/02 18:23:27;;;;;;;19.02;11.00;;;;;;;;;;6243452;28;20099;-66